sensor_id;sensor_type;location;lat;lon;timestamp;P1;durP1;ratioP1;P2;durP2;ratioP2
73980;SDS011;62348;51.412;5.436;2023-04-15T00:00:13;8.48;;;4.20;;
73980;SDS011;62348;51.412;5.436;2023-04-15T00:02:40;10.60;;;4.25;;
73980;SDS011;62348;51.412;5.436;2023-04-15T00:05:05;9.40;;;4.40;;
73980;SDS011;62348;51.412;5.436;2023-04-15T00:07:31;8.48;;;4.47;;
73980;SDS011;62348;51.412;5.436;2023-04-15T00:09:57;10.57;;;4.65;;
73980;SDS011;62348;51.412;5.436;2023-04-15T00:12:23;7.57;;;4.72;;
73980;SDS011;62348;51.412;5.436;2023-04-15T00:14:50;10.82;;;4.93;;
73980;SDS011;62348;51.412;5.436;2023-04-15T00:17:15;10.88;;;4.47;;
73980;SDS011;62348;51.412;5.436;2023-04-15T00:19:41;11.80;;;4.88;;
73980;SDS011;62348;51.412;5.436;2023-04-15T00:22:08;7.05;;;4.68;;
73980;SDS011;62348;51.412;5.436;2023-04-15T00:24:33;13.45;;;5.00;;
73980;SDS011;62348;51.412;5.436;2023-04-15T00:26:59;6.40;;;4.25;;
73980;SDS011;62348;51.412;5.436;2023-04-15T00:29:24;12.40;;;4.90;;
73980;SDS011;62348;51.412;5.436;2023-04-15T00:31:50;9.52;;;4.53;;
73980;SDS011;62348;51.412;5.436;2023-04-15T00:34:16;8.77;;;4.50;;
73980;SDS011;62348;51.412;5.436;2023-04-15T00:36:41;9.48;;;4.70;;
73980;SDS011;62348;51.412;5.436;2023-04-15T00:39:06;7.75;;;4.50;;
73980;SDS011;62348;51.412;5.436;2023-04-15T00:41:32;9.30;;;4.38;;
73980;SDS011;62348;51.412;5.436;2023-04-15T00:43:58;8.90;;;4.45;;
73980;SDS011;62348;51.412;5.436;2023-04-15T00:46:25;8.77;;;4.90;;
73980;SDS011;62348;51.412;5.436;2023-04-15T00:48:53;7.60;;;4.75;;
73980;SDS011;62348;51.412;5.436;2023-04-15T00:51:19;8.20;;;4.68;;
73980;SDS011;62348;51.412;5.436;2023-04-15T00:53:44;5.78;;;4.43;;
73980;SDS011;62348;51.412;5.436;2023-04-15T00:56:09;7.82;;;5.07;;
73980;SDS011;62348;51.412;5.436;2023-04-15T00:58:35;11.15;;;4.43;;
73980;SDS011;62348;51.412;5.436;2023-04-15T01:01:01;10.10;;;4.63;;
73980;SDS011;62348;51.412;5.436;2023-04-15T01:03:28;8.93;;;5.00;;
73980;SDS011;62348;51.412;5.436;2023-04-15T01:05:54;7.88;;;4.75;;
73980;SDS011;62348;51.412;5.436;2023-04-15T01:08:26;6.72;;;5.28;;
73980;SDS011;62348;51.412;5.436;2023-04-15T01:10:55;11.00;;;5.35;;
73980;SDS011;62348;51.412;5.436;2023-04-15T01:13:23;11.43;;;5.47;;
73980;SDS011;62348;51.412;5.436;2023-04-15T01:15:49;9.27;;;5.65;;
73980;SDS011;62348;51.412;5.436;2023-04-15T01:18:16;11.70;;;5.78;;
73980;SDS011;62348;51.412;5.436;2023-04-15T01:20:42;10.60;;;5.63;;
73980;SDS011;62348;51.412;5.436;2023-04-15T01:23:07;10.85;;;5.70;;
73980;SDS011;62348;51.412;5.436;2023-04-15T01:25:33;8.40;;;5.55;;
73980;SDS011;62348;51.412;5.436;2023-04-15T01:27:59;12.27;;;6.55;;
73980;SDS011;62348;51.412;5.436;2023-04-15T01:30:25;9.02;;;5.57;;
73980;SDS011;62348;51.412;5.436;2023-04-15T01:32:51;12.98;;;6.05;;
73980;SDS011;62348;51.412;5.436;2023-04-15T01:35:17;11.73;;;7.03;;
73980;SDS011;62348;51.412;5.436;2023-04-15T01:37:42;10.25;;;6.45;;
73980;SDS011;62348;51.412;5.436;2023-04-15T01:40:08;13.85;;;7.05;;
73980;SDS011;62348;51.412;5.436;2023-04-15T01:42:35;11.35;;;6.40;;
73980;SDS011;62348;51.412;5.436;2023-04-15T01:45:01;11.85;;;6.93;;
73980;SDS011;62348;51.412;5.436;2023-04-15T01:47:27;12.80;;;7.10;;
73980;SDS011;62348;51.412;5.436;2023-04-15T01:49:52;13.38;;;7.35;;
73980;SDS011;62348;51.412;5.436;2023-04-15T01:52:18;14.57;;;7.82;;
73980;SDS011;62348;51.412;5.436;2023-04-15T01:54:43;12.85;;;8.15;;
73980;SDS011;62348;51.412;5.436;2023-04-15T01:57:09;16.40;;;7.95;;
73980;SDS011;62348;51.412;5.436;2023-04-15T01:59:34;11.88;;;8.00;;
73980;SDS011;62348;51.412;5.436;2023-04-15T02:02:00;10.68;;;8.57;;
73980;SDS011;62348;51.412;5.436;2023-04-15T02:04:25;11.90;;;8.40;;
73980;SDS011;62348;51.412;5.436;2023-04-15T02:06:51;15.75;;;7.93;;
73980;SDS011;62348;51.412;5.436;2023-04-15T02:09:17;13.18;;;8.23;;
73980;SDS011;62348;51.412;5.436;2023-04-15T02:11:43;15.13;;;8.63;;
73980;SDS011;62348;51.412;5.436;2023-04-15T02:14:08;14.57;;;8.68;;
73980;SDS011;62348;51.412;5.436;2023-04-15T02:16:34;13.98;;;8.40;;
73980;SDS011;62348;51.412;5.436;2023-04-15T02:19:00;15.50;;;8.27;;
73980;SDS011;62348;51.412;5.436;2023-04-15T02:21:26;12.63;;;8.25;;
73980;SDS011;62348;51.412;5.436;2023-04-15T02:23:51;17.38;;;8.93;;
73980;SDS011;62348;51.412;5.436;2023-04-15T02:26:18;10.85;;;8.50;;
73980;SDS011;62348;51.412;5.436;2023-04-15T02:28:44;14.02;;;8.55;;
73980;SDS011;62348;51.412;5.436;2023-04-15T02:31:10;16.52;;;8.85;;
73980;SDS011;62348;51.412;5.436;2023-04-15T02:33:36;12.60;;;9.02;;
73980;SDS011;62348;51.412;5.436;2023-04-15T02:36:02;16.58;;;9.15;;
73980;SDS011;62348;51.412;5.436;2023-04-15T02:38:27;16.52;;;8.98;;
73980;SDS011;62348;51.412;5.436;2023-04-15T02:40:53;11.25;;;8.73;;
73980;SDS011;62348;51.412;5.436;2023-04-15T02:43:18;12.88;;;8.88;;
73980;SDS011;62348;51.412;5.436;2023-04-15T02:45:44;19.33;;;9.23;;
73980;SDS011;62348;51.412;5.436;2023-04-15T02:48:11;13.30;;;8.85;;
73980;SDS011;62348;51.412;5.436;2023-04-15T02:50:36;14.35;;;8.60;;
73980;SDS011;62348;51.412;5.436;2023-04-15T02:53:05;14.23;;;9.48;;
73980;SDS011;62348;51.412;5.436;2023-04-15T02:55:31;18.33;;;10.38;;
73980;SDS011;62348;51.412;5.436;2023-04-15T02:57:56;16.60;;;9.65;;
73980;SDS011;62348;51.412;5.436;2023-04-15T03:00:25;16.65;;;9.50;;
73980;SDS011;62348;51.412;5.436;2023-04-15T03:02:56;15.30;;;9.32;;
73980;SDS011;62348;51.412;5.436;2023-04-15T03:05:22;14.25;;;9.38;;
73980;SDS011;62348;51.412;5.436;2023-04-15T03:07:51;15.57;;;9.48;;
73980;SDS011;62348;51.412;5.436;2023-04-15T03:10:16;15.25;;;9.30;;
73980;SDS011;62348;51.412;5.436;2023-04-15T03:12:42;12.82;;;9.40;;
73980;SDS011;62348;51.412;5.436;2023-04-15T03:15:08;15.68;;;10.93;;
73980;SDS011;62348;51.412;5.436;2023-04-15T03:17:34;17.20;;;10.07;;
73980;SDS011;62348;51.412;5.436;2023-04-15T03:20:02;15.70;;;9.65;;
73980;SDS011;62348;51.412;5.436;2023-04-15T03:22:30;16.10;;;9.02;;
73980;SDS011;62348;51.412;5.436;2023-04-15T03:24:58;15.75;;;10.60;;
73980;SDS011;62348;51.412;5.436;2023-04-15T03:27:24;15.10;;;9.93;;
73980;SDS011;62348;51.412;5.436;2023-04-15T03:29:50;17.10;;;10.23;;
73980;SDS011;62348;51.412;5.436;2023-04-15T03:32:15;14.35;;;9.90;;
73980;SDS011;62348;51.412;5.436;2023-04-15T03:34:41;17.70;;;9.82;;
73980;SDS011;62348;51.412;5.436;2023-04-15T03:37:07;14.85;;;9.77;;
73980;SDS011;62348;51.412;5.436;2023-04-15T03:39:33;14.35;;;10.23;;
73980;SDS011;62348;51.412;5.436;2023-04-15T03:41:58;16.42;;;10.18;;
73980;SDS011;62348;51.412;5.436;2023-04-15T03:44:27;16.35;;;9.60;;
73980;SDS011;62348;51.412;5.436;2023-04-15T03:46:52;14.00;;;9.90;;
73980;SDS011;62348;51.412;5.436;2023-04-15T03:49:18;14.13;;;9.82;;
73980;SDS011;62348;51.412;5.436;2023-04-15T03:51:44;17.02;;;10.48;;
73980;SDS011;62348;51.412;5.436;2023-04-15T03:54:10;13.85;;;9.75;;
73980;SDS011;62348;51.412;5.436;2023-04-15T03:56:35;15.93;;;10.80;;
73980;SDS011;62348;51.412;5.436;2023-04-15T03:59:01;14.48;;;9.68;;
73980;SDS011;62348;51.412;5.436;2023-04-15T04:01:26;14.00;;;9.43;;
73980;SDS011;62348;51.412;5.436;2023-04-15T04:03:52;15.90;;;9.65;;
73980;SDS011;62348;51.412;5.436;2023-04-15T04:06:17;17.30;;;9.95;;
73980;SDS011;62348;51.412;5.436;2023-04-15T04:08:43;13.98;;;9.90;;
73980;SDS011;62348;51.412;5.436;2023-04-15T04:11:08;18.58;;;9.98;;
73980;SDS011;62348;51.412;5.436;2023-04-15T04:13:33;13.40;;;10.75;;
73980;SDS011;62348;51.412;5.436;2023-04-15T04:15:59;18.60;;;9.95;;
73980;SDS011;62348;51.412;5.436;2023-04-15T04:18:24;16.20;;;10.52;;
73980;SDS011;62348;51.412;5.436;2023-04-15T04:20:50;15.48;;;9.57;;
73980;SDS011;62348;51.412;5.436;2023-04-15T04:23:15;14.50;;;9.13;;
73980;SDS011;62348;51.412;5.436;2023-04-15T04:25:41;13.85;;;9.80;;
73980;SDS011;62348;51.412;5.436;2023-04-15T04:28:06;14.53;;;10.30;;
73980;SDS011;62348;51.412;5.436;2023-04-15T04:30:31;16.05;;;10.45;;
73980;SDS011;62348;51.412;5.436;2023-04-15T04:32:57;17.42;;;10.00;;
73980;SDS011;62348;51.412;5.436;2023-04-15T04:35:22;15.52;;;9.40;;
73980;SDS011;62348;51.412;5.436;2023-04-15T04:37:48;11.55;;;9.07;;
73980;SDS011;62348;51.412;5.436;2023-04-15T04:40:13;12.48;;;9.15;;
73980;SDS011;62348;51.412;5.436;2023-04-15T04:42:39;15.30;;;9.13;;
73980;SDS011;62348;51.412;5.436;2023-04-15T04:45:04;12.25;;;9.20;;
73980;SDS011;62348;51.412;5.436;2023-04-15T04:47:30;14.68;;;9.38;;
73980;SDS011;62348;51.412;5.436;2023-04-15T04:49:55;14.18;;;9.00;;
73980;SDS011;62348;51.412;5.436;2023-04-15T04:52:21;12.75;;;9.77;;
73980;SDS011;62348;51.412;5.436;2023-04-15T04:54:46;12.57;;;8.68;;
73980;SDS011;62348;51.412;5.436;2023-04-15T04:57:12;13.60;;;8.82;;
73980;SDS011;62348;51.412;5.436;2023-04-15T04:59:37;15.10;;;9.60;;
73980;SDS011;62348;51.412;5.436;2023-04-15T05:02:03;13.02;;;9.23;;
73980;SDS011;62348;51.412;5.436;2023-04-15T05:04:29;11.07;;;8.70;;
73980;SDS011;62348;51.412;5.436;2023-04-15T05:06:56;15.05;;;9.77;;
73980;SDS011;62348;51.412;5.436;2023-04-15T05:09:21;15.52;;;9.10;;
73980;SDS011;62348;51.412;5.436;2023-04-15T05:11:47;14.55;;;10.20;;
73980;SDS011;62348;51.412;5.436;2023-04-15T05:14:12;13.35;;;9.88;;
73980;SDS011;62348;51.412;5.436;2023-04-15T05:16:38;15.05;;;9.30;;
73980;SDS011;62348;51.412;5.436;2023-04-15T05:19:03;14.57;;;9.38;;
73980;SDS011;62348;51.412;5.436;2023-04-15T05:21:29;12.23;;;8.95;;
73980;SDS011;62348;51.412;5.436;2023-04-15T05:23:55;14.27;;;9.52;;
73980;SDS011;62348;51.412;5.436;2023-04-15T05:26:20;10.68;;;8.98;;
73980;SDS011;62348;51.412;5.436;2023-04-15T05:28:46;15.35;;;9.57;;
73980;SDS011;62348;51.412;5.436;2023-04-15T05:31:11;12.73;;;9.43;;
73980;SDS011;62348;51.412;5.436;2023-04-15T05:33:37;13.10;;;9.23;;
73980;SDS011;62348;51.412;5.436;2023-04-15T05:36:02;13.50;;;9.32;;
73980;SDS011;62348;51.412;5.436;2023-04-15T05:38:28;10.63;;;8.65;;
73980;SDS011;62348;51.412;5.436;2023-04-15T05:40:53;14.98;;;9.32;;
73980;SDS011;62348;51.412;5.436;2023-04-15T05:43:19;13.95;;;9.50;;
73980;SDS011;62348;51.412;5.436;2023-04-15T05:45:44;13.32;;;8.93;;
73980;SDS011;62348;51.412;5.436;2023-04-15T05:48:10;15.52;;;9.27;;
73980;SDS011;62348;51.412;5.436;2023-04-15T05:50:35;11.65;;;9.43;;
73980;SDS011;62348;51.412;5.436;2023-04-15T05:53:00;12.02;;;9.60;;
73980;SDS011;62348;51.412;5.436;2023-04-15T05:55:26;12.50;;;9.65;;
73980;SDS011;62348;51.412;5.436;2023-04-15T05:57:51;13.45;;;10.00;;
73980;SDS011;62348;51.412;5.436;2023-04-15T06:00:17;11.90;;;9.18;;
73980;SDS011;62348;51.412;5.436;2023-04-15T06:02:42;13.40;;;9.60;;
73980;SDS011;62348;51.412;5.436;2023-04-15T06:05:08;16.08;;;10.10;;
73980;SDS011;62348;51.412;5.436;2023-04-15T06:07:33;16.20;;;10.90;;
73980;SDS011;62348;51.412;5.436;2023-04-15T06:10:01;12.80;;;9.75;;
73980;SDS011;62348;51.412;5.436;2023-04-15T06:12:29;14.25;;;10.25;;
73980;SDS011;62348;51.412;5.436;2023-04-15T06:14:55;14.30;;;10.60;;
73980;SDS011;62348;51.412;5.436;2023-04-15T06:17:20;15.68;;;10.20;;
73980;SDS011;62348;51.412;5.436;2023-04-15T06:19:46;16.73;;;10.93;;
73980;SDS011;62348;51.412;5.436;2023-04-15T06:22:11;13.80;;;10.77;;
73980;SDS011;62348;51.412;5.436;2023-04-15T06:24:37;13.05;;;10.20;;
73980;SDS011;62348;51.412;5.436;2023-04-15T06:27:02;14.93;;;10.20;;
73980;SDS011;62348;51.412;5.436;2023-04-15T06:29:28;16.15;;;10.50;;
73980;SDS011;62348;51.412;5.436;2023-04-15T06:31:53;12.85;;;10.48;;
73980;SDS011;62348;51.412;5.436;2023-04-15T06:34:20;13.55;;;9.45;;
73980;SDS011;62348;51.412;5.436;2023-04-15T06:36:46;12.43;;;9.88;;
73980;SDS011;62348;51.412;5.436;2023-04-15T06:39:12;13.15;;;10.57;;
73980;SDS011;62348;51.412;5.436;2023-04-15T06:41:37;12.57;;;8.65;;
73980;SDS011;62348;51.412;5.436;2023-04-15T06:44:03;15.35;;;9.85;;
73980;SDS011;62348;51.412;5.436;2023-04-15T06:46:28;13.57;;;9.98;;
73980;SDS011;62348;51.412;5.436;2023-04-15T06:48:54;13.40;;;9.32;;
73980;SDS011;62348;51.412;5.436;2023-04-15T06:51:19;12.52;;;9.05;;
73980;SDS011;62348;51.412;5.436;2023-04-15T06:53:45;13.73;;;9.57;;
73980;SDS011;62348;51.412;5.436;2023-04-15T06:56:10;13.27;;;9.32;;
73980;SDS011;62348;51.412;5.436;2023-04-15T06:58:36;10.60;;;8.15;;
73980;SDS011;62348;51.412;5.436;2023-04-15T07:01:01;11.38;;;9.75;;
73980;SDS011;62348;51.412;5.436;2023-04-15T07:03:28;10.95;;;9.38;;
73980;SDS011;62348;51.412;5.436;2023-04-15T07:05:53;11.50;;;8.73;;
73980;SDS011;62348;51.412;5.436;2023-04-15T07:08:19;13.75;;;8.85;;
73980;SDS011;62348;51.412;5.436;2023-04-15T07:10:47;10.90;;;7.93;;
73980;SDS011;62348;51.412;5.436;2023-04-15T07:13:13;12.38;;;8.70;;
73980;SDS011;62348;51.412;5.436;2023-04-15T07:15:38;9.90;;;8.07;;
73980;SDS011;62348;51.412;5.436;2023-04-15T07:18:03;12.30;;;8.55;;
73980;SDS011;62348;51.412;5.436;2023-04-15T07:20:29;11.90;;;9.02;;
73980;SDS011;62348;51.412;5.436;2023-04-15T07:22:54;10.60;;;7.72;;
73980;SDS011;62348;51.412;5.436;2023-04-15T07:25:20;10.55;;;8.52;;
73980;SDS011;62348;51.412;5.436;2023-04-15T07:27:45;10.48;;;8.40;;
73980;SDS011;62348;51.412;5.436;2023-04-15T07:30:11;12.50;;;8.40;;
73980;SDS011;62348;51.412;5.436;2023-04-15T07:32:37;10.65;;;7.90;;
73980;SDS011;62348;51.412;5.436;2023-04-15T07:35:02;11.10;;;7.85;;
73980;SDS011;62348;51.412;5.436;2023-04-15T07:37:28;9.40;;;7.82;;
73980;SDS011;62348;51.412;5.436;2023-04-15T07:39:54;10.02;;;7.15;;
73980;SDS011;62348;51.412;5.436;2023-04-15T07:42:19;10.82;;;7.53;;
73980;SDS011;62348;51.412;5.436;2023-04-15T07:44:45;11.20;;;7.43;;
73980;SDS011;62348;51.412;5.436;2023-04-15T07:47:10;8.85;;;7.13;;
73980;SDS011;62348;51.412;5.436;2023-04-15T07:49:36;10.38;;;7.22;;
73980;SDS011;62348;51.412;5.436;2023-04-15T07:52:02;9.98;;;7.03;;
73980;SDS011;62348;51.412;5.436;2023-04-15T07:54:27;9.57;;;7.13;;
73980;SDS011;62348;51.412;5.436;2023-04-15T07:56:53;8.05;;;6.82;;
73980;SDS011;62348;51.412;5.436;2023-04-15T07:59:18;7.90;;;6.70;;
73980;SDS011;62348;51.412;5.436;2023-04-15T08:01:44;8.23;;;7.03;;
73980;SDS011;62348;51.412;5.436;2023-04-15T08:04:09;9.63;;;6.63;;
73980;SDS011;62348;51.412;5.436;2023-04-15T08:06:34;8.50;;;6.68;;
73980;SDS011;62348;51.412;5.436;2023-04-15T08:09:01;7.80;;;6.18;;
73980;SDS011;62348;51.412;5.436;2023-04-15T08:11:26;7.97;;;6.35;;
73980;SDS011;62348;51.412;5.436;2023-04-15T08:13:52;7.63;;;6.07;;
73980;SDS011;62348;51.412;5.436;2023-04-15T08:16:22;9.20;;;6.53;;
73980;SDS011;62348;51.412;5.436;2023-04-15T08:18:48;8.00;;;6.03;;
73980;SDS011;62348;51.412;5.436;2023-04-15T08:21:17;9.27;;;6.80;;
73980;SDS011;62348;51.412;5.436;2023-04-15T08:23:44;8.45;;;6.93;;
73980;SDS011;62348;51.412;5.436;2023-04-15T08:26:10;7.10;;;6.30;;
73980;SDS011;62348;51.412;5.436;2023-04-15T08:28:37;7.30;;;6.43;;
73980;SDS011;62348;51.412;5.436;2023-04-15T08:31:04;7.35;;;6.05;;
73980;SDS011;62348;51.412;5.436;2023-04-15T08:33:29;7.53;;;6.70;;
73980;SDS011;62348;51.412;5.436;2023-04-15T08:35:55;7.22;;;6.40;;
73980;SDS011;62348;51.412;5.436;2023-04-15T08:38:20;8.10;;;5.97;;
73980;SDS011;62348;51.412;5.436;2023-04-15T08:40:46;8.55;;;6.60;;
73980;SDS011;62348;51.412;5.436;2023-04-15T08:43:14;10.02;;;7.28;;
73980;SDS011;62348;51.412;5.436;2023-04-15T08:45:45;9.15;;;6.57;;
73980;SDS011;62348;51.412;5.436;2023-04-15T08:48:13;10.00;;;7.00;;
73980;SDS011;62348;51.412;5.436;2023-04-15T08:50:41;8.70;;;5.78;;
73980;SDS011;62348;51.412;5.436;2023-04-15T08:53:06;8.63;;;6.22;;
73980;SDS011;62348;51.412;5.436;2023-04-15T08:55:34;7.70;;;5.90;;
73980;SDS011;62348;51.412;5.436;2023-04-15T08:58:03;7.05;;;5.53;;
73980;SDS011;62348;51.412;5.436;2023-04-15T09:00:31;7.10;;;4.95;;
73980;SDS011;62348;51.412;5.436;2023-04-15T09:02:57;10.00;;;5.10;;
73980;SDS011;62348;51.412;5.436;2023-04-15T09:05:23;10.57;;;5.30;;
73980;SDS011;62348;51.412;5.436;2023-04-15T09:07:51;8.52;;;4.88;;
73980;SDS011;62348;51.412;5.436;2023-04-15T09:10:17;6.57;;;4.45;;
73980;SDS011;62348;51.412;5.436;2023-04-15T09:12:42;7.00;;;4.72;;
73980;SDS011;62348;51.412;5.436;2023-04-15T09:15:10;6.45;;;4.40;;
73980;SDS011;62348;51.412;5.436;2023-04-15T09:17:43;8.05;;;5.22;;
73980;SDS011;62348;51.412;5.436;2023-04-15T09:20:10;6.80;;;4.03;;
73980;SDS011;62348;51.412;5.436;2023-04-15T09:22:38;7.57;;;5.07;;
73980;SDS011;62348;51.412;5.436;2023-04-15T09:27:46;6.82;;;4.60;;
73980;SDS011;62348;51.412;5.436;2023-04-15T09:30:16;8.77;;;4.70;;
73980;SDS011;62348;51.412;5.436;2023-04-15T09:32:51;8.98;;;4.93;;
73980;SDS011;62348;51.412;5.436;2023-04-15T09:35:21;7.75;;;4.32;;
73980;SDS011;62348;51.412;5.436;2023-04-15T09:37:48;7.88;;;4.40;;
73980;SDS011;62348;51.412;5.436;2023-04-15T09:40:29;7.20;;;4.60;;
73980;SDS011;62348;51.412;5.436;2023-04-15T09:42:59;8.23;;;4.32;;
73980;SDS011;62348;51.412;5.436;2023-04-15T09:45:26;7.05;;;4.10;;
73980;SDS011;62348;51.412;5.436;2023-04-15T09:47:52;6.85;;;3.60;;
73980;SDS011;62348;51.412;5.436;2023-04-15T09:50:18;7.13;;;4.10;;
73980;SDS011;62348;51.412;5.436;2023-04-15T09:52:46;5.10;;;3.83;;
73980;SDS011;62348;51.412;5.436;2023-04-15T09:55:12;6.00;;;4.07;;
73980;SDS011;62348;51.412;5.436;2023-04-15T09:57:40;4.30;;;3.88;;
73980;SDS011;62348;51.412;5.436;2023-04-15T10:00:06;8.32;;;3.85;;
73980;SDS011;62348;51.412;5.436;2023-04-15T10:02:35;3.53;;;2.85;;
73980;SDS011;62348;51.412;5.436;2023-04-15T10:05:02;5.05;;;3.38;;
73980;SDS011;62348;51.412;5.436;2023-04-15T10:07:27;4.50;;;3.45;;
73980;SDS011;62348;51.412;5.436;2023-04-15T10:09:54;6.22;;;3.90;;
73980;SDS011;62348;51.412;5.436;2023-04-15T10:12:20;4.75;;;3.92;;
73980;SDS011;62348;51.412;5.436;2023-04-15T10:14:55;4.20;;;3.80;;
73980;SDS011;62348;51.412;5.436;2023-04-15T10:17:23;4.97;;;3.38;;
73980;SDS011;62348;51.412;5.436;2023-04-15T10:19:53;4.82;;;3.72;;
73980;SDS011;62348;51.412;5.436;2023-04-15T10:22:20;5.63;;;3.90;;
73980;SDS011;62348;51.412;5.436;2023-04-15T10:24:47;4.90;;;3.63;;
73980;SDS011;62348;51.412;5.436;2023-04-15T10:27:15;6.13;;;3.90;;
73980;SDS011;62348;51.412;5.436;2023-04-15T10:29:41;4.45;;;3.88;;
73980;SDS011;62348;51.412;5.436;2023-04-15T10:32:07;4.80;;;3.80;;
73980;SDS011;62348;51.412;5.436;2023-04-15T10:34:34;5.78;;;4.25;;
73980;SDS011;62348;51.412;5.436;2023-04-15T10:37:01;3.65;;;3.03;;
73980;SDS011;62348;51.412;5.436;2023-04-15T10:39:38;4.47;;;3.13;;
73980;SDS011;62348;51.412;5.436;2023-04-15T10:42:11;4.50;;;3.17;;
73980;SDS011;62348;51.412;5.436;2023-04-15T10:44:42;4.63;;;3.67;;
73980;SDS011;62348;51.412;5.436;2023-04-15T10:47:10;4.20;;;3.53;;
73980;SDS011;62348;51.412;5.436;2023-04-15T10:49:42;5.60;;;3.22;;
73980;SDS011;62348;51.412;5.436;2023-04-15T10:52:09;3.55;;;2.63;;
73980;SDS011;62348;51.412;5.436;2023-04-15T10:54:35;6.30;;;2.63;;
73980;SDS011;62348;51.412;5.436;2023-04-15T10:59:32;6.53;;;3.70;;
73980;SDS011;62348;51.412;5.436;2023-04-15T11:02:02;3.25;;;2.60;;
73980;SDS011;62348;51.412;5.436;2023-04-15T11:10:01;3.88;;;2.85;;
73980;SDS011;62348;51.412;5.436;2023-04-15T11:12:34;3.30;;;3.00;;
73980;SDS011;62348;51.412;5.436;2023-04-15T11:20:34;2.58;;;2.38;;
73980;SDS011;62348;51.412;5.436;2023-04-15T11:23:00;2.15;;;1.95;;
73980;SDS011;62348;51.412;5.436;2023-04-15T11:25:32;3.83;;;2.22;;
73980;SDS011;62348;51.412;5.436;2023-04-15T11:27:59;2.38;;;1.90;;
73980;SDS011;62348;51.412;5.436;2023-04-15T11:30:26;2.42;;;1.85;;
73980;SDS011;62348;51.412;5.436;2023-04-15T11:32:59;2.20;;;1.80;;
73980;SDS011;62348;51.412;5.436;2023-04-15T11:35:25;3.78;;;2.42;;
73980;SDS011;62348;51.412;5.436;2023-04-15T11:37:51;2.35;;;2.15;;
73980;SDS011;62348;51.412;5.436;2023-04-15T11:40:28;5.20;;;3.15;;
73980;SDS011;62348;51.412;5.436;2023-04-15T11:45:29;4.68;;;2.60;;
73980;SDS011;62348;51.412;5.436;2023-04-15T11:47:59;2.50;;;2.13;;
73980;SDS011;62348;51.412;5.436;2023-04-15T11:50:38;4.15;;;2.40;;
73980;SDS011;62348;51.412;5.436;2023-04-15T11:53:08;3.08;;;2.67;;
73980;SDS011;62348;51.412;5.436;2023-04-15T11:55:48;4.35;;;2.80;;
73980;SDS011;62348;51.412;5.436;2023-04-15T11:58:17;3.05;;;2.45;;
73980;SDS011;62348;51.412;5.436;2023-04-15T12:00:45;2.70;;;2.50;;
73980;SDS011;62348;51.412;5.436;2023-04-15T12:16:23;2.85;;;2.03;;
73980;SDS011;62348;51.412;5.436;2023-04-15T12:18:50;2.53;;;2.28;;
73980;SDS011;62348;51.412;5.436;2023-04-15T12:21:20;4.63;;;2.70;;
73980;SDS011;62348;51.412;5.436;2023-04-15T12:23:53;2.65;;;2.30;;
73980;SDS011;62348;51.412;5.436;2023-04-15T12:26:26;4.45;;;2.58;;
73980;SDS011;62348;51.412;5.436;2023-04-15T12:29:03;3.85;;;3.10;;
73980;SDS011;62348;51.412;5.436;2023-04-15T12:31:31;3.15;;;2.50;;
73980;SDS011;62348;51.412;5.436;2023-04-15T12:33:57;2.70;;;2.40;;
73980;SDS011;62348;51.412;5.436;2023-04-15T12:36:23;4.70;;;2.88;;
73980;SDS011;62348;51.412;5.436;2023-04-15T12:38:49;3.13;;;2.03;;
73980;SDS011;62348;51.412;5.436;2023-04-15T12:41:15;4.85;;;1.95;;
73980;SDS011;62348;51.412;5.436;2023-04-15T12:43:40;3.08;;;2.10;;
73980;SDS011;62348;51.412;5.436;2023-04-15T12:46:06;3.63;;;2.00;;
73980;SDS011;62348;51.412;5.436;2023-04-15T12:48:32;2.97;;;2.10;;
73980;SDS011;62348;51.412;5.436;2023-04-15T12:50:58;4.75;;;2.17;;
73980;SDS011;62348;51.412;5.436;2023-04-15T12:53:24;3.90;;;2.50;;
73980;SDS011;62348;51.412;5.436;2023-04-15T12:55:50;4.07;;;2.40;;
73980;SDS011;62348;51.412;5.436;2023-04-15T12:58:16;4.10;;;2.35;;
73980;SDS011;62348;51.412;5.436;2023-04-15T13:00:42;2.40;;;2.20;;
73980;SDS011;62348;51.412;5.436;2023-04-15T13:03:07;2.60;;;2.13;;
73980;SDS011;62348;51.412;5.436;2023-04-15T13:05:32;2.65;;;2.25;;
73980;SDS011;62348;51.412;5.436;2023-04-15T13:07:58;3.28;;;2.33;;
73980;SDS011;62348;51.412;5.436;2023-04-15T13:10:23;3.45;;;2.83;;
73980;SDS011;62348;51.412;5.436;2023-04-15T13:12:49;2.70;;;2.30;;
73980;SDS011;62348;51.412;5.436;2023-04-15T13:15:17;3.47;;;2.33;;
73980;SDS011;62348;51.412;5.436;2023-04-15T13:17:44;2.88;;;2.40;;
73980;SDS011;62348;51.412;5.436;2023-04-15T13:20:10;4.68;;;2.30;;
73980;SDS011;62348;51.412;5.436;2023-04-15T13:22:36;2.50;;;2.30;;
73980;SDS011;62348;51.412;5.436;2023-04-15T13:25:01;3.00;;;2.35;;
73980;SDS011;62348;51.412;5.436;2023-04-15T13:27:27;2.92;;;2.15;;
73980;SDS011;62348;51.412;5.436;2023-04-15T13:29:53;3.33;;;2.30;;
73980;SDS011;62348;51.412;5.436;2023-04-15T13:32:18;2.33;;;2.05;;
73980;SDS011;62348;51.412;5.436;2023-04-15T13:34:44;2.88;;;2.30;;
73980;SDS011;62348;51.412;5.436;2023-04-15T13:37:09;3.05;;;1.85;;
73980;SDS011;62348;51.412;5.436;2023-04-15T13:39:35;2.45;;;1.75;;
73980;SDS011;62348;51.412;5.436;2023-04-15T13:42:00;1.98;;;1.80;;
73980;SDS011;62348;51.412;5.436;2023-04-15T13:44:26;2.90;;;1.90;;
73980;SDS011;62348;51.412;5.436;2023-04-15T13:46:52;2.67;;;1.60;;
73980;SDS011;62348;51.412;5.436;2023-04-15T13:49:17;3.00;;;1.73;;
73980;SDS011;62348;51.412;5.436;2023-04-15T13:51:43;4.15;;;1.83;;
73980;SDS011;62348;51.412;5.436;2023-04-15T13:54:08;4.30;;;1.65;;
73980;SDS011;62348;51.412;5.436;2023-04-15T13:56:33;1.70;;;1.50;;
73980;SDS011;62348;51.412;5.436;2023-04-15T13:58:59;2.38;;;1.60;;
73980;SDS011;62348;51.412;5.436;2023-04-15T14:01:26;3.25;;;2.15;;
73980;SDS011;62348;51.412;5.436;2023-04-15T14:03:52;3.85;;;2.00;;
73980;SDS011;62348;51.412;5.436;2023-04-15T14:06:17;4.32;;;1.60;;
73980;SDS011;62348;51.412;5.436;2023-04-15T14:08:43;2.30;;;1.60;;
73980;SDS011;62348;51.412;5.436;2023-04-15T14:11:08;3.45;;;2.03;;
73980;SDS011;62348;51.412;5.436;2023-04-15T14:13:34;2.30;;;1.80;;
73980;SDS011;62348;51.412;5.436;2023-04-15T14:16:00;2.17;;;1.80;;
73980;SDS011;62348;51.412;5.436;2023-04-15T14:18:25;3.25;;;1.67;;
73980;SDS011;62348;51.412;5.436;2023-04-15T14:20:51;4.05;;;2.38;;
73980;SDS011;62348;51.412;5.436;2023-04-15T14:23:17;4.80;;;2.08;;
73980;SDS011;62348;51.412;5.436;2023-04-15T14:25:42;3.75;;;1.92;;
73980;SDS011;62348;51.412;5.436;2023-04-15T14:28:08;3.58;;;1.70;;
73980;SDS011;62348;51.412;5.436;2023-04-15T14:30:33;1.73;;;1.20;;
73980;SDS011;62348;51.412;5.436;2023-04-15T14:32:59;1.65;;;1.20;;
73980;SDS011;62348;51.412;5.436;2023-04-15T14:35:24;2.15;;;1.92;;
73980;SDS011;62348;51.412;5.436;2023-04-15T14:37:54;2.50;;;1.20;;
73980;SDS011;62348;51.412;5.436;2023-04-15T14:40:19;3.63;;;1.35;;
73980;SDS011;62348;51.412;5.436;2023-04-15T14:42:45;2.72;;;1.50;;
73980;SDS011;62348;51.412;5.436;2023-04-15T14:45:11;4.93;;;1.50;;
73980;SDS011;62348;51.412;5.436;2023-04-15T14:47:36;2.05;;;1.23;;
73980;SDS011;62348;51.412;5.436;2023-04-15T14:50:02;3.63;;;1.52;;
73980;SDS011;62348;51.412;5.436;2023-04-15T14:52:29;2.05;;;1.20;;
73980;SDS011;62348;51.412;5.436;2023-04-15T14:54:57;5.43;;;1.52;;
73980;SDS011;62348;51.412;5.436;2023-04-15T14:57:22;1.55;;;1.40;;
73980;SDS011;62348;51.412;5.436;2023-04-15T14:59:48;1.25;;;1.10;;
73980;SDS011;62348;51.412;5.436;2023-04-15T15:02:13;3.50;;;1.30;;
73980;SDS011;62348;51.412;5.436;2023-04-15T15:04:39;1.60;;;1.13;;
73980;SDS011;62348;51.412;5.436;2023-04-15T15:07:04;3.22;;;1.38;;